Time;durP1;ratioP1;P1;durP2;ratioP2;P2;SDS_P1;SDS_P2;PMS_P1;PMS_P2;Temp;Humidity;BMP_temperature;BMP_pressure;BME280_temperature;BME280_humidity;BME280_pressure;Samples;Min_cycle;Max_cycle;Signal;HPM_P1;HPM_P2
2022/04/03 00:02:57;;;;;;;13.57;7.80;;;;;;;-0.19;59.31;100251.78;10312918;28;20086;-80
2022/04/03 00:07:59;;;;;;;12.55;7.55;;;;;;;-0.23;59.60;100264.66;10312199;28;20054;-80
2022/04/03 00:13:02;;;;;;;13.38;7.95;;;;;;;-0.31;59.67;100264.72;10313385;28;20149;-80
2022/04/03 00:18:03;;;;;;;10.13;6.95;;;;;;;-0.32;59.50;100268.19;10312489;28;20493;-80
2022/04/03 00:23:06;;;;;;;9.32;6.90;;;;;;;-0.27;59.31;100263.84;10313161;28;20085;-81
2022/04/03 00:28:08;;;;;;;13.40;7.00;;;;;;;-0.32;59.53;100269.03;10313468;28;20144;-81
2022/04/03 00:33:11;;;;;;;13.07;7.63;;;;;;;-0.35;59.80;100268.19;10309257;28;20121;-81
2022/04/03 00:38:13;;;;;;;10.48;7.50;;;;;;;-0.38;59.93;100263.97;10311340;28;20054;-81
2022/04/03 00:43:15;;;;;;;12.40;8.43;;;;;;;-0.42;60.19;100269.13;10309986;28;20054;-81
2022/04/03 00:48:17;;;;;;;10.50;8.38;;;;;;;-0.46;60.47;100276.03;10312145;28;20522;-82
2022/04/03 00:53:20;;;;;;;12.88;7.65;;;;;;;-0.49;60.52;100273.47;10312871;28;20055;-82
2022/04/03 00:58:22;;;;;;;11.05;7.55;;;;;;;-0.49;60.45;100278.63;10312024;28;20144;-81
2022/04/03 01:03:24;;;;;;;13.35;7.93;;;;;;;-0.53;60.68;100283.78;10312450;28;20093;-81
2022/04/03 01:08:26;;;;;;;11.55;8.00;;;;;;;-0.59;60.75;100277.00;10312255;28;20064;-82
2022/04/03 01:13:28;;;;;;;12.57;8.63;;;;;;;-0.59;60.75;100276.16;10310465;28;20782;-81
2022/04/03 01:18:30;;;;;;;10.65;7.40;;;;;;;-0.71;60.89;100279.69;10311381;28;20054;-82
2022/04/03 01:23:47;;;;;;;10.98;7.95;;;;;;;-0.78;61.66;100283.16;10311517;28;20054;-81
2022/04/03 01:28:51;;;;;;;11.48;7.50;;;;;;;-0.83;61.18;100292.63;10312332;28;20058;-81
2022/04/03 01:33:53;;;;;;;10.95;7.47;;;;;;;-0.89;61.16;100287.53;10319182;28;20088;-81
2022/04/03 01:38:54;;;;;;;12.07;7.60;;;;;;;-0.90;61.33;100285.00;10319257;28;20055;-81
2022/04/03 01:43:56;;;;;;;12.65;8.10;;;;;;;-0.92;61.45;100286.72;10319058;28;20057;-81
2022/04/03 01:48:58;;;;;;;11.10;7.65;;;;;;;-0.99;61.55;100291.03;10317127;28;20046;-82
2022/04/03 01:54:01;;;;;;;11.40;7.40;;;;;;;-1.04;61.51;100291.94;10317620;28;20086;-81
2022/04/03 01:59:03;;;;;;;11.43;8.18;;;;;;;-1.11;61.79;100292.84;10316765;28;20058;-82
2022/04/03 02:04:05;;;;;;;9.65;7.30;;;;;;;-1.16;62.00;100288.59;10321853;28;20073;-82
2022/04/03 02:09:10;;;;;;;11.45;7.15;;;;;;;-1.18;61.83;100295.44;10323655;28;20492;-82
2022/04/03 02:14:11;;;;;;;11.73;7.47;;;;;;;-1.22;61.95;100292.91;10324091;28;20101;-82
2022/04/03 02:19:13;;;;;;;10.30;7.35;;;;;;;-1.29;62.17;100291.25;10322618;28;20374;-82
2022/04/03 02:24:15;;;;;;;12.27;7.50;;;;;;;-1.29;62.20;100299.78;10322708;28;20117;-82
2022/04/03 02:29:17;;;;;;;10.82;7.50;;;;;;;-1.33;62.26;100300.66;10322469;28;20050;-82
2022/04/03 02:34:19;;;;;;;11.20;7.72;;;;;;;-1.34;62.36;100301.53;10305725;28;20050;-81
2022/04/03 02:39:21;;;;;;;11.07;7.75;;;;;;;-1.29;62.36;100302.34;10323020;28;20136;-81
2022/04/03 02:44:23;;;;;;;10.45;7.55;;;;;;;-1.13;62.42;100299.69;10301544;28;20054;-82
2022/04/03 02:49:25;;;;;;;10.18;7.50;;;;;;;-0.99;62.31;100300.44;10322303;28;20138;-82
2022/04/03 02:54:27;;;;;;;11.63;7.70;;;;;;;-0.96;62.01;100301.28;10322136;28;20988;-82
2022/04/03 02:59:29;;;;;;;11.50;8.05;;;;;;;-0.91;61.92;100307.25;10320763;28;20077;-82
2022/04/03 03:04:31;;;;;;;12.05;7.60;;;;;;;-0.90;61.99;100296.09;10316955;28;20516;-82
2022/04/03 03:09:34;;;;;;;10.27;7.13;;;;;;;-0.83;61.82;100297.75;10315493;28;20093;-82
2022/04/03 03:14:35;;;;;;;10.85;7.28;;;;;;;-0.77;61.92;100302.84;10316477;28;20057;-82
2022/04/03 03:19:37;;;;;;;11.70;8.25;;;;;;;-0.72;61.65;100298.50;10313980;28;20050;-82
2022/04/03 03:24:39;;;;;;;12.10;8.20;;;;;;;-0.74;61.79;100302.81;10316037;28;20109;-81
2022/04/03 03:29:41;;;;;;;14.80;10.07;;;;;;;-0.70;61.77;100304.53;10315013;28;20108;-82
2022/04/03 03:34:43;;;;;;;15.95;9.50;;;;;;;-0.65;61.93;100310.44;10315305;28;21012;-82
2022/04/03 03:39:44;;;;;;;13.93;9.45;;;;;;;-0.54;61.71;100315.50;10314384;28;20125;-82
2022/04/03 03:44:46;;;;;;;11.73;9.15;;;;;;;-0.50;61.63;100319.75;10315441;28;20085;-82
2022/04/03 03:49:48;;;;;;;13.43;9.23;;;;;;;-0.41;61.72;100317.06;10314311;28;20144;-82
2022/04/03 03:54:51;;;;;;;13.30;8.10;;;;;;;-0.38;61.29;100322.19;10312545;28;21116;-82
2022/04/03 03:59:53;;;;;;;11.32;7.57;;;;;;;-0.41;61.22;100322.22;10312364;28;20100;-82
2022/04/03 04:04:55;;;;;;;10.80;7.65;;;;;;;-0.50;61.47;100322.31;10313026;28;20090;-82
2022/04/03 04:09:56;;;;;;;13.13;8.02;;;;;;;-0.53;61.44;100333.47;10312747;28;20155;-82
2022/04/03 04:14:58;;;;;;;10.75;8.10;;;;;;;-0.53;61.22;100341.16;10312175;28;20073;-82
2022/04/03 04:20:00;;;;;;;9.50;6.70;;;;;;;-0.52;61.00;100344.59;10311961;28;20129;-82
2022/04/03 04:25:01;;;;;;;10.13;7.05;;;;;;;-0.52;60.98;100339.47;10311905;28;20054;-82
2022/04/03 04:30:04;;;;;;;11.43;7.35;;;;;;;-0.54;61.00;100344.63;10311526;28;20108;-82
2022/04/03 04:35:06;;;;;;;9.85;6.95;;;;;;;-0.70;61.18;100345.59;10311180;28;20104;-82
2022/04/03 04:40:14;;;;;;;9.73;6.68;;;;;;;-0.85;61.21;100355.97;10313112;28;21114;-82
2022/04/03 04:45:16;;;;;;;8.95;6.70;;;;;;;-0.99;61.55;100362.91;10312900;28;20083;-82
2022/04/03 04:50:19;;;;;;;9.70;6.80;;;;;;;-1.13;61.67;100367.28;10310809;28;20136;-82
2022/04/03 04:55:20;;;;;;;11.48;7.65;;;;;;;-1.28;61.79;100375.06;10312738;28;20464;-82
2022/04/03 05:00:28;;;;;;;10.18;7.28;;;;;;;-1.35;61.89;100381.09;10313356;28;20133;-82
2022/04/03 05:05:32;;;;;;;12.55;6.85;;;;;;;-1.46;62.02;100378.56;10314563;28;20054;-82
2022/04/03 05:10:34;;;;;;;10.70;7.45;;;;;;;-1.49;62.16;100386.25;10320058;28;20047;-82
2022/04/03 05:15:36;;;;;;;13.30;9.10;;;;;;;-1.53;62.25;100394.00;10320058;28;20459;-82
2022/04/03 05:20:38;;;;;;;13.20;8.15;;;;;;;-1.52;62.19;100390.56;10319373;28;20086;-82
2022/04/03 05:25:40;;;;;;;11.68;7.13;;;;;;;-1.52;62.31;100393.13;10318357;28;20050;-81
2022/04/03 05:30:42;;;;;;;11.00;7.78;;;;;;;-1.50;62.67;100409.34;10318749;28;20082;-82
2022/04/03 05:35:43;;;;;;;10.20;7.30;;;;;;;-1.43;62.38;100408.50;10317520;28;20467;-82
2022/04/03 05:40:45;;;;;;;12.77;7.68;;;;;;;-1.37;62.21;100417.00;10316066;28;20101;-82
2022/04/03 05:45:47;;;;;;;9.98;7.50;;;;;;;-1.25;62.00;100418.69;10318942;28;20074;-81
2022/04/03 05:50:50;;;;;;;10.48;7.45;;;;;;;-1.20;61.65;100427.19;10319194;28;20093;-82
2022/04/03 05:55:51;;;;;;;11.18;7.93;;;;;;;-1.12;61.60;100428.00;10318928;28;20082;-82
2022/04/03 06:00:54;;;;;;;10.27;6.90;;;;;;;-1.05;61.61;100437.41;10318977;28;20089;-82
2022/04/03 06:05:55;;;;;;;8.07;6.18;;;;;;;-0.99;61.30;100439.94;10317548;28;20113;-82
2022/04/03 06:10:57;;;;;;;10.02;6.88;;;;;;;-0.84;61.15;100449.28;10319222;28;20078;-82
2022/04/03 06:15:59;;;;;;;11.75;6.40;;;;;;;-0.71;61.14;100449.19;10300616;28;20058;-82
2022/04/03 06:21:01;;;;;;;10.23;7.05;;;;;;;-0.75;61.11;100451.78;10317127;28;20050;-82
2022/04/03 06:26:03;;;;;;;9.45;6.82;;;;;;;-0.62;60.94;100451.72;10316229;28;20058;-82
2022/04/03 06:31:05;;;;;;;8.57;5.90;;;;;;;-0.47;60.77;100456.72;10316869;28;20046;-82
2022/04/03 06:36:07;;;;;;;9.30;6.13;;;;;;;-0.32;60.37;100456.63;10315666;28;20060;-81
2022/04/03 06:41:10;;;;;;;7.85;6.20;;;;;;;-0.18;60.08;100458.22;10312495;28;20105;-82
2022/04/03 06:46:12;;;;;;;10.25;6.03;;;;;;;-0.09;60.11;100463.31;10318050;28;20090;-82
2022/04/03 06:51:14;;;;;;;9.30;5.53;;;;;;;0.04;59.89;100462.31;10329627;28;20089;-82
2022/04/03 06:56:19;;;;;;;8.73;5.63;;;;;;;0.19;59.41;100464.75;10336424;28;20062;-82
2022/04/03 07:01:22;;;;;;;7.88;5.22;;;;;;;0.33;58.38;100462.91;10337076;28;20113;-82
2022/04/03 07:06:24;;;;;;;6.65;4.75;;;;;;;0.28;58.13;100469.84;10332905;28;20069;-82
2022/04/03 07:11:26;;;;;;;7.82;4.82;;;;;;;0.52;57.40;100485.03;10316623;28;20132;-81
2022/04/03 07:16:33;;;;;;;7.25;4.72;;;;;;;0.75;56.00;100480.47;10314059;28;20055;-82
2022/04/03 07:21:34;;;;;;;6.00;3.90;;;;;;;0.88;54.53;100479.47;10315423;28;20066;-82
2022/04/03 07:26:36;;;;;;;7.22;4.00;;;;;;;0.96;53.47;100472.50;10297333;28;20084;-82
2022/04/03 07:31:38;;;;;;;7.22;3.58;;;;;;;1.06;51.65;100480.94;10314058;28;20093;-81
2022/04/03 07:36:40;;;;;;;5.38;3.67;;;;;;;1.12;50.39;100481.72;10296066;28;20050;-82
2022/04/03 07:41:42;;;;;;;7.82;3.90;;;;;;;1.45;50.59;100485.56;10313271;28;20491;-81
2022/04/03 07:46:44;;;;;;;7.65;4.03;;;;;;;2.32;49.00;100485.91;10313844;28;20124;-81
2022/04/03 07:51:46;;;;;;;8.95;3.78;;;;;;;3.35;46.92;100489.91;10299748;28;20492;-82
2022/04/03 07:56:48;;;;;;;5.80;3.47;;;;;;;4.10;44.20;100489.91;10325150;28;20061;-81
2022/04/03 08:01:50;;;;;;;6.25;3.00;;;;;;;4.25;42.86;100489.50;10322425;28;20052;-82
2022/04/03 08:06:51;;;;;;;6.03;3.10;;;;;;;4.67;41.04;100490.16;10320440;28;20082;-82
2022/04/03 08:11:53;;;;;;;4.65;2.80;;;;;;;5.28;41.04;100490.13;10314457;28;20050;-82
2022/04/03 08:16:55;;;;;;;5.20;2.83;;;;;;;5.66;37.82;100495.88;10297817;28;20092;-82
2022/04/03 08:21:57;;;;;;;4.30;2.75;;;;;;;6.17;37.80;100492.50;10316897;28;20142;-82
2022/04/03 08:26:59;;;;;;;4.15;2.80;;;;;;;6.87;36.59;100492.72;10303194;28;20105;-81
2022/04/03 08:32:01;;;;;;;4.80;2.90;;;;;;;6.97;36.57;100499.28;10316724;28;20412;-83
2022/04/03 08:37:03;;;;;;;5.55;2.90;;;;;;;7.31;35.78;100497.13;10313692;28;20288;-82
2022/04/03 08:42:05;;;;;;;4.72;2.80;;;;;;;6.64;34.50;100500.47;10311013;28;20046;-82
2022/04/03 08:47:09;;;;;;;4.50;2.88;;;;;;;6.16;34.64;100516.78;10310733;28;20050;-82
2022/04/03 08:52:13;;;;;;;5.40;2.90;;;;;;;6.24;35.06;100511.34;10312248;28;20114;-82
2022/04/03 08:57:15;;;;;;;4.80;2.90;;;;;;;6.02;35.30;100507.75;10311121;28;20098;-82
2022/04/03 09:02:17;;;;;;;7.10;2.88;;;;;;;5.19;34.06;100512.84;10293465;28;20512;-83
2022/04/03 09:07:19;;;;;;;4.07;2.20;;;;;;;5.11;34.09;100518.28;10311090;28;20058;-83
2022/04/03 09:12:21;;;;;;;4.40;2.10;;;;;;;4.90;33.11;100518.03;10311899;28;20104;-82
2022/04/03 09:17:34;;;;;;;2.88;1.80;;;;;;;4.28;30.24;100527.41;10311879;28;20082;-83
2022/04/03 09:22:37;;;;;;;4.75;2.10;;;;;;;3.96;30.17;100530.78;10313827;28;20054;-83
2022/04/03 09:27:51;;;;;;;3.40;2.10;;;;;;;4.23;31.10;100521.53;10311575;28;20055;-82
2022/04/03 09:32:58;;;;;;;3.42;2.13;;;;;;;5.37;29.95;100512.34;10294098;28;21070;-83
2022/04/03 09:38:08;;;;;;;8.50;2.20;;;;;;;5.76;28.04;100500.75;10308760;28;20504;-83
2022/04/03 09:43:17;;;;;;;4.03;2.13;;;;;;;6.11;30.28;100497.91;10309455;28;20054;-82
2022/04/03 09:48:29;;;;;;;3.72;2.08;;;;;;;6.54;29.49;100492.16;10315492;28;20058;-83
2022/04/03 09:53:50;;;;;;;4.35;2.20;;;;;;;6.65;27.70;100491.78;10321412;28;20094;-82
2022/04/03 09:58:51;;;;;;;5.50;2.30;;;;;;;6.87;29.22;100492.72;10313008;28;20046;-83
2022/04/03 10:03:55;;;;;;;6.80;2.10;;;;;;;6.79;28.61;100493.00;10313537;28;20489;-83
2022/04/03 10:09:01;;;;;;;3.67;2.05;;;;;;;6.84;28.31;100498.00;10311328;28;20420;-82
2022/04/03 10:14:03;;;;;;;5.38;2.05;;;;;;;6.96;28.70;100487.16;10314571;28;20121;-83
2022/04/03 10:19:04;;;;;;;5.53;2.33;;;;;;;6.69;28.64;100485.56;10304644;28;20429;-82
2022/04/03 10:24:27;;;;;;;3.70;2.33;;;;;;;6.67;25.83;100476.97;10316323;28;20077;-84
2022/04/03 10:29:32;;;;;;;3.80;2.17;;;;;;;6.75;28.98;100477.56;10318768;28;20065;-84
2022/04/03 10:34:51;;;;;;;4.18;2.22;;;;;;;7.08;26.63;100476.34;10317482;28;20112;-82
2022/04/03 10:40:05;;;;;;;3.35;2.08;;;;;;;6.66;28.60;100464.88;10316359;28;20058;-84
2022/04/03 10:45:23;;;;;;;4.22;2.10;;;;;;;6.57;27.08;100471.22;10317394;28;20121;-83
2022/04/03 10:50:26;;;;;;;4.68;2.10;;;;;;;6.60;28.39;100465.94;10298284;28;20047;-83
2022/04/03 10:55:36;;;;;;;18.35;6.07;;;;;;;6.42;27.93;100460.53;10316749;28;20112;-84
2022/04/03 11:00:40;;;;;;;4.85;2.10;;;;;;;5.98;28.11;100456.81;10313232;28;20061;-84
2022/04/03 11:05:45;;;;;;;3.72;2.15;;;;;;;5.82;28.46;100455.63;10286901;28;20054;-84
2022/04/03 11:10:57;;;;;;;3.17;2.00;;;;;;;6.21;28.85;100442.16;10272910;28;20460;-84
2022/04/03 11:16:12;;;;;;;3.97;2.17;;;;;;;5.94;28.52;100445.66;10271653;28;20068;-84
2022/04/03 11:21:22;;;;;;;5.40;2.05;;;;;;;6.15;29.54;100434.56;10272986;28;20628;-84
2022/04/03 11:26:28;;;;;;;3.83;2.10;;;;;;;6.01;29.17;100435.94;10274964;28;20166;-83
2022/04/03 11:31:40;;;;;;;3.92;2.40;;;;;;;6.30;29.12;100422.84;10285799;28;20051;-81
2022/04/03 11:37:15;;;;;;;3.88;2.38;;;;;;;6.43;30.33;100407.69;10273433;28;20113;-82
2022/04/03 11:42:22;;;;;;;3.67;2.15;;;;;;;6.79;28.50;100402.00;10284649;28;20090;-82
2022/04/03 11:53:55;;;;;;;2.80;1.80;;;;;;;6.94;28.65;100391.03;10257967;28;20058;-82
2022/04/03 11:58:58;;;;;;;4.70;2.30;;;;;;;6.76;29.83;100396.06;10249149;28;20110;-83
2022/04/03 12:04:08;;;;;;;3.53;2.17;;;;;;;6.61;27.49;100388.84;10262364;28;20058;-83
2022/04/03 12:09:12;;;;;;;5.18;2.20;;;;;;;6.84;28.61;100389.69;10294941;28;20433;-83
2022/04/03 12:14:25;;;;;;;4.55;2.20;;;;;;;7.26;28.15;100379.41;10292885;28;20073;-83
2022/04/03 12:19:30;;;;;;;5.78;2.33;;;;;;;7.41;27.96;100385.75;10292637;28;20097;-83
2022/04/03 12:24:33;;;;;;;3.15;2.17;;;;;;;6.86;28.45;100379.22;10293689;28;20068;-83
2022/04/03 12:29:38;;;;;;;5.40;2.00;;;;;;;7.11;29.37;100366.97;10291116;28;20057;-84
2022/04/03 12:34:48;;;;;;;4.45;2.33;;;;;;;7.42;28.00;100367.50;10291034;28;20301;-84
2022/04/03 12:39:53;;;;;;;4.38;2.22;;;;;;;7.54;27.64;100366.13;10287185;28;20060;-83
2022/04/03 12:44:56;;;;;;;4.55;2.40;;;;;;;7.82;27.74;100364.09;10290209;28;20113;-84
2022/04/03 12:50:05;;;;;;;4.35;2.30;;;;;;;8.10;26.48;100353.38;10288824;28;20081;-83
2022/04/03 12:55:32;;;;;;;5.45;2.25;;;;;;;8.27;26.22;100354.34;10287331;28;20065;-83
2022/04/03 13:00:45;;;;;;;3.65;2.50;;;;;;;8.70;27.57;100348.09;10282331;28;20146;-83
2022/04/03 13:05:48;;;;;;;4.68;2.60;;;;;;;8.35;27.28;100341.84;10293018;28;20504;-83
2022/04/03 13:11:04;;;;;;;4.72;2.60;;;;;;;8.29;27.57;100344.72;10293723;28;20122;-85
2022/04/03 13:16:09;;;;;;;6.40;3.38;;;;;;;8.68;28.58;100337.72;10303482;28;20083;-84
2022/04/03 13:21:19;;;;;;;3.70;2.42;;;;;;;8.98;26.97;100325.03;10288349;28;20517;-83
2022/04/03 13:26:21;;;;;;;4.43;2.43;;;;;;;8.55;28.35;100327.91;10292629;28;20077;-83
2022/04/03 13:31:24;;;;;;;3.67;2.60;;;;;;;8.46;28.59;100321.38;10298309;28;20054;-83
2022/04/03 13:36:26;;;;;;;4.70;2.60;;;;;;;8.65;29.00;100322.22;10300489;28;20054;-82
2022/04/03 13:42:08;;;;;;;4.75;2.50;;;;;;;8.54;28.35;100319.25;10281096;28;20051;-83
2022/04/03 13:47:10;;;;;;;4.57;2.77;;;;;;;8.46;29.03;100312.69;10281144;28;20101;-83
2022/04/03 13:52:13;;;;;;;4.93;2.83;;;;;;;8.53;28.91;100308.88;10296709;28;20043;-83
2022/04/03 13:57:15;;;;;;;5.25;2.50;;;;;;;8.61;28.65;100302.41;10298567;28;20058;-84
2022/04/03 14:02:17;;;;;;;5.88;2.72;;;;;;;8.22;28.52;100298.16;10295954;28;20051;-83
2022/04/03 14:07:19;;;;;;;3.88;2.58;;;;;;;8.16;29.14;100288.84;10296815;28;20078;-80
2022/04/03 14:12:21;;;;;;;4.20;2.70;;;;;;;7.88;29.78;100290.91;10282432;28;20057;-80
2022/04/03 14:17:25;;;;;;;4.03;2.40;;;;;;;7.83;29.30;100291.09;10302900;28;20571;-80
2022/04/03 14:22:27;;;;;;;4.80;3.00;;;;;;;7.86;30.19;100296.19;10293425;28;20109;-82
2022/04/03 14:27:30;;;;;;;6.05;3.42;;;;;;;8.06;30.68;100291.91;10292306;28;20047;-81
2022/04/03 14:32:34;;;;;;;6.72;3.10;;;;;;;8.02;31.54;100292.03;10288383;28;20082;-81
2022/04/03 14:37:36;;;;;;;4.93;3.17;;;;;;;7.85;30.60;100299.69;10286257;28;20105;-80
2022/04/03 14:42:38;;;;;;;4.97;2.97;;;;;;;7.61;31.27;100285.13;10289029;28;20617;-81
2022/04/03 14:47:49;;;;;;;4.53;2.85;;;;;;;7.40;31.24;100288.63;10289290;28;20148;-82
2022/04/03 14:52:51;;;;;;;4.18;2.97;;;;;;;7.43;31.96;100300.66;10292396;28;20397;-81
2022/04/03 15:04:17;;;;;;;4.68;2.90;;;;;;;7.28;33.65;100309.94;10289868;28;20047;-80
2022/04/03 15:09:31;;;;;;;5.60;3.50;;;;;;;7.25;33.37;100304.00;10295514;28;20080;-80
2022/04/03 15:14:34;;;;;;;5.80;3.30;;;;;;;7.22;33.51;100306.75;10289341;28;20046;-81
2022/04/03 15:19:36;;;;;;;6.32;3.30;;;;;;;7.25;33.63;100311.81;10291113;28;20054;-82
2022/04/03 15:24:38;;;;;;;6.03;3.25;;;;;;;7.33;32.89;100307.16;10274810;28;20646;-81
2022/04/03 15:29:57;;;;;;;6.72;3.13;;;;;;;7.40;32.40;100304.25;10293214;28;20058;-81
2022/04/03 15:35:01;;;;;;;4.70;2.88;;;;;;;7.91;32.85;100299.47;10293490;28;20065;-82
2022/04/03 15:40:04;;;;;;;4.30;2.80;;;;;;;8.15;32.05;100287.16;10290347;28;20046;-82
2022/04/03 15:45:08;;;;;;;4.40;2.80;;;;;;;8.31;32.23;100279.50;10289203;28;20054;-81
2022/04/03 15:50:11;;;;;;;4.10;2.47;;;;;;;8.46;32.03;100271.00;10290135;28;20113;-82
2022/04/03 15:55:15;;;;;;;3.97;2.55;;;;;;;8.35;31.91;100270.63;10281593;28;20093;-81
2022/04/03 16:00:18;;;;;;;4.97;2.88;;;;;;;7.89;32.39;100275.25;10288548;28;20133;-81
2022/04/03 16:05:22;;;;;;;4.60;2.60;;;;;;;7.60;32.09;100280.84;10288358;28;20117;-81
2022/04/03 16:10:27;;;;;;;5.50;3.03;;;;;;;7.48;32.59;100278.75;10287828;28;20102;-81
2022/04/03 16:15:31;;;;;;;4.63;2.90;;;;;;;7.42;33.37;100281.63;10288198;28;20082;-81
2022/04/03 16:20:34;;;;;;;5.95;2.85;;;;;;;7.41;33.11;100287.72;10280104;28;20156;-81
2022/04/03 16:25:37;;;;;;;7.32;3.25;;;;;;;7.26;32.22;100287.50;10282082;28;20053;-81
2022/04/03 16:30:39;;;;;;;4.70;2.65;;;;;;;7.19;33.05;100289.50;10278296;28;20064;-81
2022/04/03 16:35:42;;;;;;;5.85;2.95;;;;;;;7.02;33.35;100299.75;10281217;28;20387;-81
2022/04/03 16:40:44;;;;;;;5.05;3.00;;;;;;;7.01;33.50;100300.63;10267853;28;20109;-81
2022/04/03 16:45:46;;;;;;;4.53;2.83;;;;;;;6.95;33.86;100293.94;10284108;28;20138;-81
2022/04/03 16:50:48;;;;;;;5.28;3.03;;;;;;;6.88;34.60;100296.81;10264921;28;20051;-81
2022/04/03 16:55:50;;;;;;;7.32;3.03;;;;;;;6.68;34.62;100294.97;10286463;28;20141;-81
2022/04/03 17:00:52;;;;;;;4.35;2.70;;;;;;;6.65;35.10;100304.66;10267125;28;20090;-81
2022/04/03 17:05:54;;;;;;;4.97;2.80;;;;;;;6.68;36.11;100301.94;10288297;28;20089;-82
2022/04/03 17:10:57;;;;;;;4.50;3.13;;;;;;;6.73;35.07;100306.06;10269995;28;20130;-82
2022/04/03 17:15:59;;;;;;;5.35;3.00;;;;;;;6.75;35.10;100314.66;10288918;28;20410;-81
2022/04/03 17:21:01;;;;;;;7.30;3.05;;;;;;;6.68;35.43;100314.91;10290639;28;20082;-82
2022/04/03 17:26:03;;;;;;;5.53;3.22;;;;;;;6.56;35.45;100320.59;10296002;28;20051;-82
2022/04/03 17:31:05;;;;;;;4.38;3.05;;;;;;;6.54;35.64;100319.78;10291785;28;20105;-81
2022/04/03 17:36:07;;;;;;;6.70;2.92;;;;;;;6.36;35.51;100326.53;10268202;28;20050;-81
2022/04/03 17:41:09;;;;;;;6.40;3.10;;;;;;;6.32;35.96;100322.34;10287386;28;20058;-81
2022/04/03 17:46:11;;;;;;;5.85;3.00;;;;;;;6.23;36.29;100323.47;10287963;28;20058;-82
2022/04/03 17:51:13;;;;;;;4.05;2.78;;;;;;;6.09;36.36;100320.53;10281698;28;20054;-81
2022/04/03 17:56:15;;;;;;;9.23;3.83;;;;;;;5.92;37.12;100307.28;10272244;28;20058;-81
2022/04/03 18:01:17;;;;;;;14.23;9.00;;;;;;;5.79;37.55;100305.16;10271480;28;20144;-80
2022/04/03 18:06:19;;;;;;;7.95;5.03;;;;;;;5.72;37.91;100316.63;10285037;28;20057;-80
2022/04/03 18:11:23;;;;;;;10.00;6.38;;;;;;;5.64;38.17;100310.88;10285875;28;20113;-80
2022/04/03 18:16:31;;;;;;;8.47;4.53;;;;;;;5.40;38.50;100312.53;10292585;28;20058;-81
2022/04/03 18:21:35;;;;;;;6.13;3.70;;;;;;;5.21;38.97;100319.19;10296824;28;20086;-80
2022/04/03 18:26:39;;;;;;;6.70;4.63;;;;;;;5.10;40.03;100324.75;10320958;28;20051;-81
2022/04/03 18:31:44;;;;;;;7.72;5.15;;;;;;;4.90;40.49;100323.66;10327564;28;20146;-81
2022/04/03 18:36:46;;;;;;;5.95;3.50;;;;;;;4.67;40.59;100313.97;10292297;28;20137;-81
2022/04/03 18:41:49;;;;;;;5.25;3.83;;;;;;;4.51;41.40;100326.53;10293123;28;20050;-81
2022/04/03 18:46:51;;;;;;;6.40;4.00;;;;;;;4.33;42.13;100326.22;10288945;28;21018;-81
2022/04/03 18:51:54;;;;;;;10.90;5.95;;;;;;;4.10;42.79;100329.44;10285088;28;20116;-81
2022/04/03 18:56:56;;;;;;;12.35;8.27;;;;;;;3.97;43.23;100341.00;10296366;28;20148;-81
2022/04/03 19:01:59;;;;;;;9.98;6.60;;;;;;;3.84;44.27;100349.97;10294376;28;20693;-81
2022/04/03 19:07:01;;;;;;;13.65;5.65;;;;;;;3.72;44.53;100355.44;10297319;28;20059;-81
2022/04/03 19:12:04;;;;;;;8.57;5.63;;;;;;;3.57;44.92;100355.81;10277373;28;20051;-82
2022/04/03 19:17:07;;;;;;;11.57;7.43;;;;;;;3.42;44.93;100362.19;10294315;28;20054;-81
2022/04/03 19:22:11;;;;;;;13.02;9.13;;;;;;;3.29;45.58;100359.94;10294015;28;20076;-81
2022/04/03 19:27:13;;;;;;;15.60;9.00;;;;;;;3.09;46.24;100362.97;10291067;28;20057;-81
2022/04/03 19:32:15;;;;;;;8.65;6.45;;;;;;;2.93;46.56;100354.72;10275576;28;20059;-81
2022/04/03 19:37:20;;;;;;;8.63;5.82;;;;;;;2.79;46.80;100353.31;10295144;28;20054;-81
2022/04/03 19:42:28;;;;;;;9.38;5.60;;;;;;;2.61;46.94;100358.84;10291467;28;20046;-81
2022/04/03 19:47:30;;;;;;;12.13;7.65;;;;;;;2.48;47.63;100355.66;10293436;28;20417;-81
2022/04/03 19:52:33;;;;;;;8.00;6.03;;;;;;;2.39;47.79;100363.63;10294241;28;20054;-81
2022/04/03 19:57:35;;;;;;;9.20;5.22;;;;;;;2.30;48.02;100358.63;10293141;28;20101;-81
2022/04/03 20:02:37;;;;;;;11.95;5.93;;;;;;;2.25;48.47;100367.34;10276332;28;20050;-81
2022/04/03 20:07:41;;;;;;;8.25;6.13;;;;;;;2.14;48.63;100365.81;10294470;28;20088;-81
2022/04/03 20:12:44;;;;;;;9.13;6.10;;;;;;;2.01;49.12;100372.06;10290747;28;20120;-81
2022/04/03 20:17:46;;;;;;;17.85;9.23;;;;;;;1.83;49.65;100376.69;10290481;28;20467;-81
2022/04/03 20:22:48;;;;;;;18.25;8.02;;;;;;;1.74;49.80;100372.56;10291330;28;20050;-81
2022/04/03 20:27:49;;;;;;;21.42;9.10;;;;;;;1.65;49.98;100377.00;10291199;28;20479;-81
2022/04/03 20:32:51;;;;;;;25.02;10.23;;;;;;;1.52;50.33;100375.53;10283527;28;20059;-81
2022/04/03 20:37:53;;;;;;;17.60;8.82;;;;;;;1.49;50.49;100376.41;10286718;28;20055;-81
2022/04/03 20:42:55;;;;;;;9.65;6.90;;;;;;;1.40;50.56;100381.69;10293505;28;20090;-81
2022/04/03 20:47:57;;;;;;;10.35;6.63;;;;;;;1.34;50.81;100372.34;10273714;28;20166;-81
2022/04/03 20:52:59;;;;;;;11.52;7.35;;;;;;;1.25;51.06;100371.66;10294883;28;20449;-81
2022/04/03 20:58:01;;;;;;;13.05;7.72;;;;;;;1.16;51.37;100376.91;10290696;28;20063;-81
2022/04/03 21:03:03;;;;;;;12.00;7.60;;;;;;;1.06;51.82;100376.22;10290551;28;20046;-80
2022/04/03 21:08:05;;;;;;;11.15;7.50;;;;;;;0.91;52.11;100367.84;10294265;28;20061;-81
2022/04/03 21:13:07;;;;;;;10.77;7.50;;;;;;;0.79;52.46;100365.44;10268277;28;20401;-83
2022/04/03 21:18:08;;;;;;;9.18;7.35;;;;;;;0.80;52.67;100357.69;10285752;28;20504;-82
2022/04/03 21:23:11;;;;;;;10.27;7.05;;;;;;;0.78;52.97;100361.16;10291678;28;20129;-82
2022/04/03 21:28:13;;;;;;;10.50;7.32;;;;;;;0.70;53.07;100361.25;10287002;28;20073;-82
2022/04/03 21:33:16;;;;;;;11.55;8.27;;;;;;;0.78;52.90;100356.88;10289920;28;20144;-83
2022/04/03 21:38:18;;;;;;;10.90;8.23;;;;;;;0.81;52.95;100361.13;10289604;28;20058;-82
2022/04/03 21:43:20;;;;;;;11.10;8.15;;;;;;;0.75;53.36;100354.31;10291059;28;20050;-82
2022/04/03 21:48:22;;;;;;;10.25;8.07;;;;;;;0.70;53.29;100360.41;10294174;28;20065;-82
2022/04/03 21:53:24;;;;;;;11.00;8.18;;;;;;;0.68;53.27;100363.00;10281844;28;20058;-82
2022/04/03 21:58:26;;;;;;;10.00;7.78;;;;;;;0.84;53.07;100359.34;10295553;28;20135;-82
2022/04/03 22:03:28;;;;;;;10.18;7.25;;;;;;;1.06;52.85;100358.19;10297370;28;20058;-82
2022/04/03 22:08:30;;;;;;;10.75;6.95;;;;;;;1.13;52.56;100356.38;10295184;28;20141;-82
2022/04/03 22:13:32;;;;;;;10.63;7.47;;;;;;;1.27;52.57;100350.16;10291733;28;20054;-82
2022/04/03 22:18:34;;;;;;;9.88;7.22;;;;;;;1.34;52.55;100346.56;10299424;28;20050;-82
2022/04/03 22:23:36;;;;;;;9.10;7.28;;;;;;;1.34;52.54;100348.28;10280994;28;20050;-82
2022/04/03 22:28:37;;;;;;;8.93;7.05;;;;;;;1.31;52.51;100350.94;10294977;28;20054;-82
2022/04/03 22:33:39;;;;;;;9.77;7.10;;;;;;;1.45;52.32;100348.13;10294762;28;20105;-82
2022/04/03 22:38:41;;;;;;;8.35;6.50;;;;;;;1.51;51.94;100353.19;10296032;28;20129;-82
2022/04/03 22:43:43;;;;;;;8.98;7.18;;;;;;;1.56;51.42;100356.56;10294600;28;20046;-82
2022/04/03 22:48:45;;;;;;;10.75;6.90;;;;;;;1.55;51.47;100357.41;10294508;28;20090;-82
2022/04/03 22:53:46;;;;;;;8.65;7.07;;;;;;;1.61;51.30;100341.84;10278830;28;20066;-82
2022/04/03 22:58:48;;;;;;;11.38;7.35;;;;;;;1.62;51.21;100346.13;10295551;28;20092;-82
2022/04/03 23:03:50;;;;;;;9.07;7.65;;;;;;;1.62;51.26;100344.41;10295352;28;20090;-82
2022/04/03 23:08:52;;;;;;;10.65;8.32;;;;;;;1.59;51.26;100339.28;10297408;28;20150;-83
2022/04/03 23:13:54;;;;;;;9.05;7.70;;;;;;;1.59;51.21;100341.00;10294552;28;20050;-83
2022/04/03 23:18:56;;;;;;;11.05;7.65;;;;;;;1.52;51.41;100326.56;10293786;28;20098;-83
2022/04/03 23:23:57;;;;;;;11.23;7.75;;;;;;;1.57;51.25;100323.00;10279534;28;20065;-83
2022/04/03 23:28:59;;;;;;;11.38;8.30;;;;;;;1.65;51.19;100322.88;10295101;28;20054;-83
2022/04/03 23:34:01;;;;;;;12.27;8.45;;;;;;;1.54;51.36;100304.19;10294452;28;20059;-83